sensor_id;sensor_type;location;lat;lon;timestamp;P1;durP1;ratioP1;P2;durP2;ratioP2
4434;SDS011;46552;52.150;8.428;2024-03-02T00:01:37;13.77;;;7.43;;
4434;SDS011;46552;52.150;8.428;2024-03-02T00:04:04;17.60;;;9.23;;
4434;SDS011;46552;52.150;8.428;2024-03-02T00:06:33;17.30;;;9.33;;
4434;SDS011;46552;52.150;8.428;2024-03-02T00:09:02;14.40;;;8.43;;
4434;SDS011;46552;52.150;8.428;2024-03-02T00:11:29;14.60;;;9.00;;
4434;SDS011;46552;52.150;8.428;2024-03-02T00:13:58;15.27;;;9.37;;
4434;SDS011;46552;52.150;8.428;2024-03-02T00:16:27;15.70;;;9.37;;
4434;SDS011;46552;52.150;8.428;2024-03-02T00:18:58;14.93;;;9.30;;
4434;SDS011;46552;52.150;8.428;2024-03-02T00:21:29;21.70;;;11.27;;
4434;SDS011;46552;52.150;8.428;2024-03-02T00:23:57;13.60;;;8.40;;
4434;SDS011;46552;52.150;8.428;2024-03-02T00:26:26;20.70;;;11.07;;
4434;SDS011;46552;52.150;8.428;2024-03-02T00:28:55;18.13;;;10.47;;
4434;SDS011;46552;52.150;8.428;2024-03-02T00:31:23;19.00;;;10.43;;
4434;SDS011;46552;52.150;8.428;2024-03-02T00:33:51;17.17;;;10.63;;
4434;SDS011;46552;52.150;8.428;2024-03-02T00:36:22;17.80;;;10.93;;
4434;SDS011;46552;52.150;8.428;2024-03-02T00:38:51;15.83;;;10.67;;
4434;SDS011;46552;52.150;8.428;2024-03-02T00:41:21;17.70;;;10.83;;
4434;SDS011;46552;52.150;8.428;2024-03-02T00:44:00;16.10;;;11.10;;
4434;SDS011;46552;52.150;8.428;2024-03-02T00:46:29;15.70;;;10.10;;
4434;SDS011;46552;52.150;8.428;2024-03-02T00:48:59;17.90;;;9.43;;
4434;SDS011;46552;52.150;8.428;2024-03-02T00:51:28;16.83;;;11.00;;
4434;SDS011;46552;52.150;8.428;2024-03-02T00:53:58;23.00;;;11.63;;
4434;SDS011;46552;52.150;8.428;2024-03-02T00:56:26;14.93;;;10.37;;
4434;SDS011;46552;52.150;8.428;2024-03-02T00:58:54;16.93;;;10.83;;
4434;SDS011;46552;52.150;8.428;2024-03-02T01:01:23;19.43;;;10.70;;
4434;SDS011;46552;52.150;8.428;2024-03-02T01:03:50;17.00;;;10.30;;
4434;SDS011;46552;52.150;8.428;2024-03-02T01:06:16;22.77;;;12.70;;
4434;SDS011;46552;52.150;8.428;2024-03-02T01:08:44;16.73;;;10.27;;
4434;SDS011;46552;52.150;8.428;2024-03-02T01:11:13;22.33;;;13.10;;
4434;SDS011;46552;52.150;8.428;2024-03-02T01:13:40;21.97;;;11.87;;
4434;SDS011;46552;52.150;8.428;2024-03-02T01:16:07;18.70;;;11.13;;
4434;SDS011;46552;52.150;8.428;2024-03-02T01:18:36;19.90;;;12.00;;
4434;SDS011;46552;52.150;8.428;2024-03-02T01:21:04;19.13;;;11.93;;
4434;SDS011;46552;52.150;8.428;2024-03-02T01:23:31;17.37;;;11.50;;
4434;SDS011;46552;52.150;8.428;2024-03-02T01:25:58;22.03;;;13.23;;
4434;SDS011;46552;52.150;8.428;2024-03-02T01:28:25;17.83;;;11.30;;
4434;SDS011;46552;52.150;8.428;2024-03-02T01:30:52;20.17;;;11.90;;
4434;SDS011;46552;52.150;8.428;2024-03-02T01:33:20;18.70;;;10.97;;
4434;SDS011;46552;52.150;8.428;2024-03-02T01:35:49;20.17;;;11.20;;
4434;SDS011;46552;52.150;8.428;2024-03-02T01:38:16;19.13;;;12.10;;
4434;SDS011;46552;52.150;8.428;2024-03-02T01:40:43;20.10;;;11.90;;
4434;SDS011;46552;52.150;8.428;2024-03-02T01:43:10;21.40;;;11.23;;
4434;SDS011;46552;52.150;8.428;2024-03-02T01:45:38;18.10;;;10.50;;
4434;SDS011;46552;52.150;8.428;2024-03-02T01:48:06;17.97;;;10.77;;
4434;SDS011;46552;52.150;8.428;2024-03-02T01:50:34;17.83;;;11.83;;
4434;SDS011;46552;52.150;8.428;2024-03-02T01:53:04;21.60;;;12.10;;
4434;SDS011;46552;52.150;8.428;2024-03-02T01:55:31;19.90;;;10.50;;
4434;SDS011;46552;52.150;8.428;2024-03-02T01:57:59;20.33;;;12.70;;
4434;SDS011;46552;52.150;8.428;2024-03-02T02:00:27;22.90;;;12.03;;
4434;SDS011;46552;52.150;8.428;2024-03-02T02:02:55;19.97;;;11.37;;
4434;SDS011;46552;52.150;8.428;2024-03-02T02:05:22;16.67;;;10.70;;
4434;SDS011;46552;52.150;8.428;2024-03-02T02:07:50;17.73;;;11.00;;
4434;SDS011;46552;52.150;8.428;2024-03-02T02:10:19;19.30;;;11.70;;
4434;SDS011;46552;52.150;8.428;2024-03-02T02:12:47;17.03;;;9.87;;
4434;SDS011;46552;52.150;8.428;2024-03-02T02:15:21;22.73;;;10.80;;
4434;SDS011;46552;52.150;8.428;2024-03-02T02:17:52;19.43;;;11.07;;
4434;SDS011;46552;52.150;8.428;2024-03-02T02:20:20;21.27;;;12.40;;
4434;SDS011;46552;52.150;8.428;2024-03-02T02:22:56;22.43;;;11.83;;
4434;SDS011;46552;52.150;8.428;2024-03-02T02:25:23;16.93;;;10.47;;
4434;SDS011;46552;52.150;8.428;2024-03-02T02:27:51;20.43;;;11.00;;
4434;SDS011;46552;52.150;8.428;2024-03-02T02:30:19;18.50;;;11.60;;
4434;SDS011;46552;52.150;8.428;2024-03-02T02:32:47;20.23;;;11.93;;
4434;SDS011;46552;52.150;8.428;2024-03-02T02:35:14;19.23;;;11.33;;
4434;SDS011;46552;52.150;8.428;2024-03-02T02:37:42;20.70;;;10.53;;
4434;SDS011;46552;52.150;8.428;2024-03-02T02:40:12;17.83;;;10.10;;
4434;SDS011;46552;52.150;8.428;2024-03-02T02:42:39;17.97;;;10.17;;
4434;SDS011;46552;52.150;8.428;2024-03-02T02:45:06;17.40;;;10.63;;
4434;SDS011;46552;52.150;8.428;2024-03-02T02:47:34;17.67;;;10.83;;
4434;SDS011;46552;52.150;8.428;2024-03-02T02:50:03;21.70;;;11.57;;
4434;SDS011;46552;52.150;8.428;2024-03-02T02:52:33;18.40;;;11.50;;
4434;SDS011;46552;52.150;8.428;2024-03-02T02:55:02;17.53;;;10.13;;
4434;SDS011;46552;52.150;8.428;2024-03-02T02:57:31;16.40;;;9.93;;
4434;SDS011;46552;52.150;8.428;2024-03-02T03:00:02;20.47;;;12.57;;
4434;SDS011;46552;52.150;8.428;2024-03-02T03:02:35;18.10;;;11.40;;
4434;SDS011;46552;52.150;8.428;2024-03-02T03:05:04;15.93;;;10.03;;
4434;SDS011;46552;52.150;8.428;2024-03-02T03:07:32;21.43;;;11.70;;
4434;SDS011;46552;52.150;8.428;2024-03-02T03:10:00;18.23;;;11.73;;
4434;SDS011;46552;52.150;8.428;2024-03-02T03:12:30;21.83;;;12.63;;
4434;SDS011;46552;52.150;8.428;2024-03-02T03:14:58;16.90;;;10.60;;
4434;SDS011;46552;52.150;8.428;2024-03-02T03:17:26;20.00;;;11.00;;
4434;SDS011;46552;52.150;8.428;2024-03-02T03:19:53;20.33;;;13.17;;
4434;SDS011;46552;52.150;8.428;2024-03-02T03:22:21;16.33;;;11.40;;
4434;SDS011;46552;52.150;8.428;2024-03-02T03:24:49;17.40;;;11.80;;
4434;SDS011;46552;52.150;8.428;2024-03-02T03:27:16;20.07;;;11.87;;
4434;SDS011;46552;52.150;8.428;2024-03-02T03:29:46;21.40;;;12.67;;
4434;SDS011;46552;52.150;8.428;2024-03-02T03:32:13;20.70;;;12.77;;
4434;SDS011;46552;52.150;8.428;2024-03-02T03:34:42;20.37;;;12.93;;
4434;SDS011;46552;52.150;8.428;2024-03-02T03:37:09;20.13;;;12.30;;
4434;SDS011;46552;52.150;8.428;2024-03-02T03:39:36;21.80;;;12.57;;
4434;SDS011;46552;52.150;8.428;2024-03-02T03:42:03;21.50;;;12.67;;
4434;SDS011;46552;52.150;8.428;2024-03-02T03:44:31;25.63;;;14.93;;
4434;SDS011;46552;52.150;8.428;2024-03-02T03:47:00;21.93;;;13.63;;
4434;SDS011;46552;52.150;8.428;2024-03-02T03:49:27;22.73;;;12.53;;
4434;SDS011;46552;52.150;8.428;2024-03-02T03:51:54;23.70;;;13.97;;
4434;SDS011;46552;52.150;8.428;2024-03-02T03:54:21;21.67;;;12.83;;
4434;SDS011;46552;52.150;8.428;2024-03-02T03:56:49;21.27;;;13.50;;
4434;SDS011;46552;52.150;8.428;2024-03-02T03:59:16;25.60;;;13.53;;
4434;SDS011;46552;52.150;8.428;2024-03-02T04:01:43;21.60;;;13.30;;
4434;SDS011;46552;52.150;8.428;2024-03-02T04:04:12;20.20;;;13.20;;
4434;SDS011;46552;52.150;8.428;2024-03-02T04:06:40;22.73;;;14.70;;
4434;SDS011;46552;52.150;8.428;2024-03-02T04:09:07;25.30;;;14.63;;
4434;SDS011;46552;52.150;8.428;2024-03-02T04:11:35;22.03;;;13.03;;
4434;SDS011;46552;52.150;8.428;2024-03-02T04:14:02;25.10;;;14.13;;
4434;SDS011;46552;52.150;8.428;2024-03-02T04:16:31;24.00;;;15.13;;
4434;SDS011;46552;52.150;8.428;2024-03-02T04:18:58;21.40;;;12.90;;
4434;SDS011;46552;52.150;8.428;2024-03-02T04:21:25;25.03;;;15.27;;
4434;SDS011;46552;52.150;8.428;2024-03-02T04:23:52;24.83;;;13.57;;
4434;SDS011;46552;52.150;8.428;2024-03-02T04:26:22;20.20;;;13.33;;
4434;SDS011;46552;52.150;8.428;2024-03-02T04:28:50;29.53;;;14.33;;
4434;SDS011;46552;52.150;8.428;2024-03-02T04:31:17;24.30;;;14.53;;
4434;SDS011;46552;52.150;8.428;2024-03-02T04:33:45;24.03;;;14.47;;
4434;SDS011;46552;52.150;8.428;2024-03-02T04:36:12;20.77;;;13.80;;
4434;SDS011;46552;52.150;8.428;2024-03-02T04:38:41;21.90;;;13.10;;
4434;SDS011;46552;52.150;8.428;2024-03-02T04:41:09;27.20;;;14.97;;
4434;SDS011;46552;52.150;8.428;2024-03-02T04:43:37;29.97;;;15.63;;
4434;SDS011;46552;52.150;8.428;2024-03-02T04:46:04;25.77;;;15.40;;
4434;SDS011;46552;52.150;8.428;2024-03-02T04:48:32;27.10;;;13.87;;
4434;SDS011;46552;52.150;8.428;2024-03-02T04:50:59;23.90;;;15.20;;
4434;SDS011;46552;52.150;8.428;2024-03-02T04:53:27;25.80;;;16.17;;
4434;SDS011;46552;52.150;8.428;2024-03-02T04:55:55;25.13;;;14.70;;
4434;SDS011;46552;52.150;8.428;2024-03-02T04:58:51;25.33;;;15.03;;
4434;SDS011;46552;52.150;8.428;2024-03-02T05:01:18;25.10;;;15.50;;
4434;SDS011;46552;52.150;8.428;2024-03-02T05:03:46;27.93;;;15.07;;
4434;SDS011;46552;52.150;8.428;2024-03-02T05:06:13;26.67;;;16.97;;
4434;SDS011;46552;52.150;8.428;2024-03-02T05:08:40;27.43;;;15.70;;
4434;SDS011;46552;52.150;8.428;2024-03-02T05:11:11;22.90;;;15.40;;
4434;SDS011;46552;52.150;8.428;2024-03-02T05:13:58;24.27;;;15.37;;
4434;SDS011;46552;52.150;8.428;2024-03-02T05:16:25;27.97;;;16.80;;
4434;SDS011;46552;52.150;8.428;2024-03-02T05:18:52;25.67;;;15.87;;
4434;SDS011;46552;52.150;8.428;2024-03-02T05:21:19;23.47;;;14.07;;
4434;SDS011;46552;52.150;8.428;2024-03-02T05:23:46;26.87;;;16.30;;
4434;SDS011;46552;52.150;8.428;2024-03-02T05:26:15;25.63;;;16.23;;
4434;SDS011;46552;52.150;8.428;2024-03-02T05:28:42;25.30;;;16.77;;
4434;SDS011;46552;52.150;8.428;2024-03-02T05:31:09;28.00;;;15.47;;
4434;SDS011;46552;52.150;8.428;2024-03-02T05:33:37;25.37;;;15.97;;
4434;SDS011;46552;52.150;8.428;2024-03-02T05:36:04;25.93;;;15.53;;
4434;SDS011;46552;52.150;8.428;2024-03-02T05:38:32;29.20;;;16.33;;
4434;SDS011;46552;52.150;8.428;2024-03-02T05:41:01;23.70;;;15.50;;
4434;SDS011;46552;52.150;8.428;2024-03-02T05:43:29;30.57;;;15.37;;
4434;SDS011;46552;52.150;8.428;2024-03-02T05:45:56;27.07;;;15.80;;
4434;SDS011;46552;52.150;8.428;2024-03-02T05:48:23;21.60;;;13.70;;
4434;SDS011;46552;52.150;8.428;2024-03-02T05:50:51;26.20;;;14.30;;
4434;SDS011;46552;52.150;8.428;2024-03-02T05:53:18;27.03;;;15.13;;
4434;SDS011;46552;52.150;8.428;2024-03-02T05:55:45;27.80;;;15.80;;
4434;SDS011;46552;52.150;8.428;2024-03-02T05:58:18;20.83;;;14.63;;
4434;SDS011;46552;52.150;8.428;2024-03-02T06:00:58;25.30;;;14.23;;
4434;SDS011;46552;52.150;8.428;2024-03-02T06:03:25;29.80;;;14.70;;
4434;SDS011;46552;52.150;8.428;2024-03-02T06:05:53;25.70;;;15.80;;
4434;SDS011;46552;52.150;8.428;2024-03-02T06:08:20;26.97;;;16.20;;
4434;SDS011;46552;52.150;8.428;2024-03-02T06:10:48;25.40;;;15.83;;
4434;SDS011;46552;52.150;8.428;2024-03-02T06:13:15;29.73;;;14.97;;
4434;SDS011;46552;52.150;8.428;2024-03-02T06:15:42;30.80;;;17.43;;
4434;SDS011;46552;52.150;8.428;2024-03-02T06:18:11;24.97;;;16.77;;
4434;SDS011;46552;52.150;8.428;2024-03-02T06:20:38;26.93;;;16.20;;
4434;SDS011;46552;52.150;8.428;2024-03-02T06:23:05;27.87;;;16.40;;
4434;SDS011;46552;52.150;8.428;2024-03-02T06:25:32;28.37;;;17.50;;
4434;SDS011;46552;52.150;8.428;2024-03-02T06:27:59;28.13;;;16.53;;
4434;SDS011;46552;52.150;8.428;2024-03-02T06:30:27;29.97;;;17.13;;
4434;SDS011;46552;52.150;8.428;2024-03-02T06:32:55;33.50;;;16.70;;
4434;SDS011;46552;52.150;8.428;2024-03-02T06:35:24;29.50;;;16.53;;
4434;SDS011;46552;52.150;8.428;2024-03-02T06:37:51;33.10;;;18.13;;
4434;SDS011;46552;52.150;8.428;2024-03-02T06:40:19;26.73;;;17.20;;
4434;SDS011;46552;52.150;8.428;2024-03-02T06:42:46;29.40;;;16.27;;
4434;SDS011;46552;52.150;8.428;2024-03-02T06:45:13;29.33;;;17.43;;
4434;SDS011;46552;52.150;8.428;2024-03-02T06:47:41;31.87;;;17.63;;
4434;SDS011;46552;52.150;8.428;2024-03-02T06:50:09;29.27;;;17.53;;
4434;SDS011;46552;52.150;8.428;2024-03-02T06:52:38;27.47;;;15.90;;
4434;SDS011;46552;52.150;8.428;2024-03-02T06:55:05;33.83;;;18.50;;
4434;SDS011;46552;52.150;8.428;2024-03-02T06:57:33;31.33;;;17.40;;
4434;SDS011;46552;52.150;8.428;2024-03-02T07:00:00;29.27;;;16.50;;
4434;SDS011;46552;52.150;8.428;2024-03-02T07:02:30;54.73;;;26.53;;
4434;SDS011;46552;52.150;8.428;2024-03-02T07:04:58;58.83;;;32.33;;
4434;SDS011;46552;52.150;8.428;2024-03-02T07:07:26;48.57;;;24.80;;
4434;SDS011;46552;52.150;8.428;2024-03-02T07:09:54;46.23;;;23.20;;
4434;SDS011;46552;52.150;8.428;2024-03-02T07:12:21;34.80;;;18.90;;
4434;SDS011;46552;52.150;8.428;2024-03-02T07:14:48;30.00;;;18.33;;
4434;SDS011;46552;52.150;8.428;2024-03-02T07:17:33;26.77;;;17.40;;
4434;SDS011;46552;52.150;8.428;2024-03-02T07:20:02;40.30;;;20.30;;
4434;SDS011;46552;52.150;8.428;2024-03-02T07:22:29;39.47;;;21.57;;
4434;SDS011;46552;52.150;8.428;2024-03-02T07:24:59;31.60;;;18.33;;
4434;SDS011;46552;52.150;8.428;2024-03-02T07:27:27;37.77;;;19.70;;
4434;SDS011;46552;52.150;8.428;2024-03-02T07:29:55;31.53;;;18.47;;
4434;SDS011;46552;52.150;8.428;2024-03-02T07:32:22;37.57;;;19.60;;
4434;SDS011;46552;52.150;8.428;2024-03-02T07:34:49;45.97;;;20.53;;
4434;SDS011;46552;52.150;8.428;2024-03-02T07:37:17;31.60;;;18.83;;
4434;SDS011;46552;52.150;8.428;2024-03-02T07:39:45;40.20;;;21.53;;
4434;SDS011;46552;52.150;8.428;2024-03-02T07:42:14;44.47;;;24.63;;
4434;SDS011;46552;52.150;8.428;2024-03-02T07:44:41;44.40;;;22.30;;
4434;SDS011;46552;52.150;8.428;2024-03-02T07:47:10;33.53;;;19.50;;
4434;SDS011;46552;52.150;8.428;2024-03-02T07:49:37;32.67;;;19.23;;
4434;SDS011;46552;52.150;8.428;2024-03-02T07:52:05;32.03;;;17.17;;
4434;SDS011;46552;52.150;8.428;2024-03-02T07:54:32;30.00;;;17.60;;
4434;SDS011;46552;52.150;8.428;2024-03-02T07:57:00;30.03;;;17.90;;
4434;SDS011;46552;52.150;8.428;2024-03-02T07:59:29;28.03;;;17.60;;
4434;SDS011;46552;52.150;8.428;2024-03-02T08:01:56;23.87;;;15.40;;
4434;SDS011;46552;52.150;8.428;2024-03-02T08:04:23;28.90;;;16.83;;
4434;SDS011;46552;52.150;8.428;2024-03-02T08:06:51;29.57;;;17.30;;
4434;SDS011;46552;52.150;8.428;2024-03-02T08:09:19;28.97;;;19.10;;
4434;SDS011;46552;52.150;8.428;2024-03-02T08:11:46;21.70;;;14.90;;
4434;SDS011;46552;52.150;8.428;2024-03-02T08:14:14;27.53;;;16.70;;
4434;SDS011;46552;52.150;8.428;2024-03-02T08:16:43;23.80;;;15.33;;
4434;SDS011;46552;52.150;8.428;2024-03-02T08:19:11;26.87;;;15.40;;
4434;SDS011;46552;52.150;8.428;2024-03-02T08:21:38;32.93;;;14.70;;
4434;SDS011;46552;52.150;8.428;2024-03-02T08:24:06;24.60;;;15.70;;
4434;SDS011;46552;52.150;8.428;2024-03-02T08:26:33;23.43;;;14.93;;
4434;SDS011;46552;52.150;8.428;2024-03-02T08:29:01;21.80;;;13.40;;
4434;SDS011;46552;52.150;8.428;2024-03-02T08:31:28;25.50;;;15.10;;
4434;SDS011;46552;52.150;8.428;2024-03-02T08:33:57;22.37;;;14.00;;
4434;SDS011;46552;52.150;8.428;2024-03-02T08:36:24;22.77;;;14.80;;
4434;SDS011;46552;52.150;8.428;2024-03-02T08:38:52;22.17;;;15.60;;
4434;SDS011;46552;52.150;8.428;2024-03-02T08:41:19;21.30;;;14.17;;
4434;SDS011;46552;52.150;8.428;2024-03-02T08:43:46;24.10;;;14.20;;
4434;SDS011;46552;52.150;8.428;2024-03-02T08:46:13;17.10;;;11.97;;
4434;SDS011;46552;52.150;8.428;2024-03-02T08:48:41;15.77;;;10.97;;
4434;SDS011;46552;52.150;8.428;2024-03-02T08:51:09;14.13;;;9.20;;
4434;SDS011;46552;52.150;8.428;2024-03-02T08:53:37;18.47;;;8.90;;
4434;SDS011;46552;52.150;8.428;2024-03-02T08:56:05;13.13;;;8.93;;
4434;SDS011;46552;52.150;8.428;2024-03-02T08:58:32;14.40;;;8.73;;
4434;SDS011;46552;52.150;8.428;2024-03-02T09:00:59;15.90;;;8.83;;
4434;SDS011;46552;52.150;8.428;2024-03-02T09:03:27;11.90;;;8.07;;
4434;SDS011;46552;52.150;8.428;2024-03-02T09:05:54;10.90;;;7.30;;
4434;SDS011;46552;52.150;8.428;2024-03-02T09:08:23;11.37;;;7.50;;
4434;SDS011;46552;52.150;8.428;2024-03-02T09:10:51;12.53;;;7.47;;
4434;SDS011;46552;52.150;8.428;2024-03-02T09:13:18;10.60;;;7.13;;
4434;SDS011;46552;52.150;8.428;2024-03-02T09:15:45;18.87;;;7.27;;
4434;SDS011;46552;52.150;8.428;2024-03-02T09:18:12;13.53;;;7.27;;
4434;SDS011;46552;52.150;8.428;2024-03-02T09:20:40;9.83;;;6.70;;
4434;SDS011;46552;52.150;8.428;2024-03-02T09:23:07;9.20;;;5.93;;
4434;SDS011;46552;52.150;8.428;2024-03-02T09:25:36;9.00;;;6.17;;
4434;SDS011;46552;52.150;8.428;2024-03-02T09:28:03;10.63;;;6.03;;
4434;SDS011;46552;52.150;8.428;2024-03-02T09:30:30;9.40;;;6.13;;
4434;SDS011;46552;52.150;8.428;2024-03-02T09:32:57;9.13;;;5.80;;
4434;SDS011;46552;52.150;8.428;2024-03-02T09:35:25;8.10;;;5.50;;
4434;SDS011;46552;52.150;8.428;2024-03-02T09:37:52;12.80;;;6.03;;
4434;SDS011;46552;52.150;8.428;2024-03-02T09:40:21;9.70;;;5.67;;
4434;SDS011;46552;52.150;8.428;2024-03-02T09:42:50;8.50;;;5.30;;
4434;SDS011;46552;52.150;8.428;2024-03-02T09:45:18;8.10;;;5.57;;
4434;SDS011;46552;52.150;8.428;2024-03-02T09:47:51;12.67;;;5.80;;
4434;SDS011;46552;52.150;8.428;2024-03-02T09:50:19;8.10;;;5.07;;
4434;SDS011;46552;52.150;8.428;2024-03-02T09:52:48;10.30;;;5.10;;
4434;SDS011;46552;52.150;8.428;2024-03-02T09:55:16;9.57;;;4.77;;
4434;SDS011;46552;52.150;8.428;2024-03-02T09:57:44;8.80;;;5.37;;
4434;SDS011;46552;52.150;8.428;2024-03-02T10:00:15;9.43;;;4.50;;
4434;SDS011;46552;52.150;8.428;2024-03-02T10:02:43;6.97;;;4.23;;
4434;SDS011;46552;52.150;8.428;2024-03-02T10:05:14;8.47;;;4.90;;
4434;SDS011;46552;52.150;8.428;2024-03-02T10:07:56;14.43;;;4.80;;
4434;SDS011;46552;52.150;8.428;2024-03-02T10:10:27;7.53;;;4.23;;
4434;SDS011;46552;52.150;8.428;2024-03-02T10:13:05;8.80;;;5.30;;
4434;SDS011;46552;52.150;8.428;2024-03-02T10:15:35;9.33;;;5.30;;
4434;SDS011;46552;52.150;8.428;2024-03-02T10:18:03;7.60;;;5.73;;
4434;SDS011;46552;52.150;8.428;2024-03-02T10:20:31;10.97;;;6.13;;
4434;SDS011;46552;52.150;8.428;2024-03-02T10:23:09;8.37;;;4.40;;
4434;SDS011;46552;52.150;8.428;2024-03-02T10:25:37;7.63;;;4.27;;
4434;SDS011;46552;52.150;8.428;2024-03-02T10:28:04;9.27;;;6.00;;
4434;SDS011;46552;52.150;8.428;2024-03-02T10:30:33;8.77;;;5.50;;
4434;SDS011;46552;52.150;8.428;2024-03-02T10:33:03;9.23;;;5.40;;
4434;SDS011;46552;52.150;8.428;2024-03-02T10:35:32;7.63;;;4.00;;
4434;SDS011;46552;52.150;8.428;2024-03-02T10:38:01;8.00;;;4.63;;
4434;SDS011;46552;52.150;8.428;2024-03-02T10:40:32;8.83;;;5.37;;
4434;SDS011;46552;52.150;8.428;2024-03-02T10:42:59;8.73;;;5.30;;
4434;SDS011;46552;52.150;8.428;2024-03-02T10:45:30;13.97;;;6.03;;
4434;SDS011;46552;52.150;8.428;2024-03-02T10:47:59;9.27;;;6.20;;
4434;SDS011;46552;52.150;8.428;2024-03-02T10:50:28;8.00;;;4.70;;
4434;SDS011;46552;52.150;8.428;2024-03-02T10:52:56;10.03;;;6.73;;
4434;SDS011;46552;52.150;8.428;2024-03-02T10:55:23;8.87;;;5.43;;
4434;SDS011;46552;52.150;8.428;2024-03-02T10:57:51;7.70;;;5.30;;
4434;SDS011;46552;52.150;8.428;2024-03-02T11:00:19;9.33;;;5.63;;
4434;SDS011;46552;52.150;8.428;2024-03-02T11:02:51;10.10;;;5.57;;
4434;SDS011;46552;52.150;8.428;2024-03-02T11:05:26;8.07;;;5.30;;
4434;SDS011;46552;52.150;8.428;2024-03-02T11:07:56;7.80;;;4.77;;
4434;SDS011;46552;52.150;8.428;2024-03-02T11:10:28;9.80;;;5.03;;
4434;SDS011;46552;52.150;8.428;2024-03-02T11:13:02;9.73;;;4.70;;
4434;SDS011;46552;52.150;8.428;2024-03-02T11:15:32;9.50;;;5.40;;
4434;SDS011;46552;52.150;8.428;2024-03-02T11:18:03;7.53;;;4.53;;
4434;SDS011;46552;52.150;8.428;2024-03-02T11:20:35;8.50;;;5.10;;
4434;SDS011;46552;52.150;8.428;2024-03-02T11:23:04;7.77;;;5.53;;
4434;SDS011;46552;52.150;8.428;2024-03-02T11:25:33;9.63;;;4.93;;
4434;SDS011;46552;52.150;8.428;2024-03-02T11:28:04;8.00;;;4.30;;
4434;SDS011;46552;52.150;8.428;2024-03-02T11:30:49;6.60;;;4.03;;
4434;SDS011;46552;52.150;8.428;2024-03-02T11:33:24;11.73;;;4.80;;
4434;SDS011;46552;52.150;8.428;2024-03-02T11:35:55;8.10;;;4.90;;
4434;SDS011;46552;52.150;8.428;2024-03-02T11:38:27;7.10;;;5.17;;
4434;SDS011;46552;52.150;8.428;2024-03-02T11:40:56;8.93;;;4.63;;
4434;SDS011;46552;52.150;8.428;2024-03-02T11:43:25;7.40;;;4.73;;
4434;SDS011;46552;52.150;8.428;2024-03-02T11:45:57;6.87;;;3.70;;
4434;SDS011;46552;52.150;8.428;2024-03-02T11:48:26;6.30;;;4.57;;
4434;SDS011;46552;52.150;8.428;2024-03-02T11:50:53;6.77;;;4.80;;
4434;SDS011;46552;52.150;8.428;2024-03-02T11:53:27;6.03;;;3.60;;
4434;SDS011;46552;52.150;8.428;2024-03-02T11:55:55;7.93;;;4.63;;
4434;SDS011;46552;52.150;8.428;2024-03-02T11:58:25;7.67;;;3.90;;
4434;SDS011;46552;52.150;8.428;2024-03-02T12:00:54;5.10;;;3.80;;
4434;SDS011;46552;52.150;8.428;2024-03-02T12:03:23;7.50;;;4.30;;
4434;SDS011;46552;52.150;8.428;2024-03-02T12:05:52;7.63;;;4.37;;
4434;SDS011;46552;52.150;8.428;2024-03-02T12:08:22;6.50;;;4.07;;
4434;SDS011;46552;52.150;8.428;2024-03-02T12:10:55;6.13;;;4.13;;
4434;SDS011;46552;52.150;8.428;2024-03-02T12:13:25;6.23;;;3.83;;
4434;SDS011;46552;52.150;8.428;2024-03-02T12:15:53;9.43;;;4.80;;
4434;SDS011;46552;52.150;8.428;2024-03-02T12:18:22;7.00;;;3.83;;
4434;SDS011;46552;52.150;8.428;2024-03-02T12:20:50;5.67;;;3.63;;
4434;SDS011;46552;52.150;8.428;2024-03-02T12:23:23;8.10;;;3.77;;
4434;SDS011;46552;52.150;8.428;2024-03-02T12:25:50;6.03;;;3.40;;
4434;SDS011;46552;52.150;8.428;2024-03-02T12:28:19;6.20;;;3.73;;
4434;SDS011;46552;52.150;8.428;2024-03-02T12:30:46;8.13;;;4.33;;
4434;SDS011;46552;52.150;8.428;2024-03-02T12:33:15;5.37;;;3.90;;
4434;SDS011;46552;52.150;8.428;2024-03-02T12:35:43;6.77;;;4.20;;
4434;SDS011;46552;52.150;8.428;2024-03-02T12:38:10;7.40;;;4.63;;
4434;SDS011;46552;52.150;8.428;2024-03-02T12:40:38;6.40;;;4.73;;
4434;SDS011;46552;52.150;8.428;2024-03-02T12:43:06;6.60;;;4.20;;
4434;SDS011;46552;52.150;8.428;2024-03-02T12:45:33;5.90;;;3.83;;
4434;SDS011;46552;52.150;8.428;2024-03-02T12:48:01;5.77;;;3.53;;
4434;SDS011;46552;52.150;8.428;2024-03-02T12:50:28;7.10;;;4.17;;
4434;SDS011;46552;52.150;8.428;2024-03-02T12:52:57;7.77;;;5.10;;
4434;SDS011;46552;52.150;8.428;2024-03-02T12:55:25;6.90;;;4.60;;
4434;SDS011;46552;52.150;8.428;2024-03-02T12:57:55;7.83;;;4.60;;
4434;SDS011;46552;52.150;8.428;2024-03-02T13:00:24;8.27;;;5.07;;
4434;SDS011;46552;52.150;8.428;2024-03-02T13:02:51;8.17;;;5.13;;
4434;SDS011;46552;52.150;8.428;2024-03-02T13:05:19;8.50;;;5.40;;
4434;SDS011;46552;52.150;8.428;2024-03-02T13:07:46;7.33;;;5.00;;
4434;SDS011;46552;52.150;8.428;2024-03-02T13:10:14;7.80;;;5.00;;
4434;SDS011;46552;52.150;8.428;2024-03-02T13:12:42;6.63;;;4.27;;
4434;SDS011;46552;52.150;8.428;2024-03-02T13:15:11;7.97;;;4.87;;
4434;SDS011;46552;52.150;8.428;2024-03-02T13:17:39;7.50;;;5.37;;
4434;SDS011;46552;52.150;8.428;2024-03-02T13:20:06;8.73;;;5.57;;
4434;SDS011;46552;52.150;8.428;2024-03-02T13:22:35;9.90;;;5.47;;
4434;SDS011;46552;52.150;8.428;2024-03-02T13:25:03;7.23;;;4.43;;
4434;SDS011;46552;52.150;8.428;2024-03-02T13:27:32;7.70;;;4.87;;
4434;SDS011;46552;52.150;8.428;2024-03-02T13:29:59;7.40;;;4.90;;
4434;SDS011;46552;52.150;8.428;2024-03-02T13:32:29;10.47;;;4.83;;
4434;SDS011;46552;52.150;8.428;2024-03-02T13:34:56;6.20;;;4.70;;
4434;SDS011;46552;52.150;8.428;2024-03-02T13:37:25;12.07;;;6.70;;
4434;SDS011;46552;52.150;8.428;2024-03-02T13:39:52;7.50;;;4.97;;
4434;SDS011;46552;52.150;8.428;2024-03-02T13:42:20;10.10;;;5.00;;
4434;SDS011;46552;52.150;8.428;2024-03-02T13:44:47;6.67;;;3.83;;
4434;SDS011;46552;52.150;8.428;2024-03-02T13:47:16;6.13;;;4.27;;
4434;SDS011;46552;52.150;8.428;2024-03-02T13:49:45;9.13;;;5.63;;
4434;SDS011;46552;52.150;8.428;2024-03-02T13:52:14;7.43;;;4.47;;
4434;SDS011;46552;52.150;8.428;2024-03-02T13:54:42;6.53;;;4.07;;
4434;SDS011;46552;52.150;8.428;2024-03-02T13:57:10;6.90;;;3.93;;
4434;SDS011;46552;52.150;8.428;2024-03-02T13:59:38;6.50;;;3.70;;
4434;SDS011;46552;52.150;8.428;2024-03-02T14:02:07;7.93;;;3.37;;
4434;SDS011;46552;52.150;8.428;2024-03-02T14:04:35;6.33;;;4.07;;
4434;SDS011;46552;52.150;8.428;2024-03-02T14:07:04;6.33;;;4.10;;
4434;SDS011;46552;52.150;8.428;2024-03-02T14:09:32;6.83;;;4.23;;
4434;SDS011;46552;52.150;8.428;2024-03-02T14:11:59;8.40;;;4.37;;
4434;SDS011;46552;52.150;8.428;2024-03-02T14:14:27;6.27;;;3.90;;
4434;SDS011;46552;52.150;8.428;2024-03-02T14:16:55;10.60;;;3.90;;
4434;SDS011;46552;52.150;8.428;2024-03-02T14:19:25;4.83;;;3.80;;
4434;SDS011;46552;52.150;8.428;2024-03-02T14:21:52;5.90;;;3.60;;
4434;SDS011;46552;52.150;8.428;2024-03-02T14:24:21;6.37;;;3.43;;
4434;SDS011;46552;52.150;8.428;2024-03-02T14:26:50;5.63;;;3.40;;
4434;SDS011;46552;52.150;8.428;2024-03-02T14:29:18;8.23;;;3.30;;
4434;SDS011;46552;52.150;8.428;2024-03-02T14:31:47;7.60;;;3.90;;
4434;SDS011;46552;52.150;8.428;2024-03-02T14:34:14;6.47;;;3.83;;
4434;SDS011;46552;52.150;8.428;2024-03-02T14:36:42;4.93;;;3.30;;
4434;SDS011;46552;52.150;8.428;2024-03-02T14:39:09;4.80;;;3.40;;
4434;SDS011;46552;52.150;8.428;2024-03-02T14:41:38;4.87;;;3.03;;
4434;SDS011;46552;52.150;8.428;2024-03-02T14:44:06;5.07;;;3.13;;
4434;SDS011;46552;52.150;8.428;2024-03-02T14:46:33;5.13;;;3.10;;
4434;SDS011;46552;52.150;8.428;2024-03-02T14:49:00;6.80;;;3.70;;
4434;SDS011;46552;52.150;8.428;2024-03-02T14:51:28;4.43;;;2.90;;
4434;SDS011;46552;52.150;8.428;2024-03-02T14:53:55;6.17;;;3.40;;